Tim Quigg — WDB6570 — position and weather

sailwx.info

Track history (hours):
 
Tides and Currents Weather Stations Pressure Air Temp Water Temp Dewpoint Dewpoint Depression Visibility Wind Speed Wind Dir Waves Ship Positions

Tim Quigg

Owner: Harley Marine Services, Inc, Seattle, WA. More information available from US FCC via Universal Licensing System and Coast Guard Vessel Documentation Center.

Last reported at 2017-Feb-17 09:17 UTC. Time now 2017-Feb-19 18:42 UTC.
Position N 33°45' W 118°13'.

Type: Tug. MMSI: 366926740.

Date/timePositionNaut miles runAvg speedWind from/ knotsBaromVisibWave heightAir tempDewpointWater temp
2017-Feb-17 09:17N 33°45' W 118°13'2 0.7
2017-Feb-17 06:03N 33°44' W 118°16'0 0.0
2017-Feb-17 05:33N 33°44' W 118°16'0 0.0
2017-Feb-17 04:33N 33°44' W 118°16'2 2.1
2017-Feb-17 03:33N 33°45' W 118°14'0 0.1
2017-Feb-17 02:34N 33°45' W 118°14'1 1.2
2017-Feb-17 01:33N 33°46' W 118°13'2 2.2
2017-Feb-17 00:33N 33°44' W 118°12'3 2.8
2017-Feb-16 23:33N 33°43' W 118°15'1 1.1
2017-Feb-16 22:33N 33°44' W 118°16'0 0.0
2017-Feb-16 21:33N 33°44' W 118°16'1 1.3
2017-Feb-16 20:33N 33°43' W 118°15'4 3.6
2017-Feb-16 19:33N 33°44' W 118°11'4 4.2
2017-Feb-16 18:33N 33°44' W 118°16'3 2.8
2017-Feb-16 17:33N 33°44' W 118°12'0 0.0
2017-Feb-16 16:33N 33°44' W 118°12'0 0.0
2017-Feb-16 15:33N 33°44' W 118°12'4 3.7
2017-Feb-16 14:33N 33°45' W 118°17'1 0.8
2017-Feb-16 13:32N 33°44' W 118°16'2 2.1
2017-Feb-16 12:33N 33°43' W 118°14'1 1.0
2017-Feb-16 11:33N 33°44' W 118°13'4 3.9
2017-Feb-16 10:33N 33°44' W 118°09'5 4.9
2017-Feb-16 09:33N 33°43' W 118°14'1 1.4
2017-Feb-16 08:33N 33°44' W 118°16'0 0.0
2017-Feb-16 07:33N 33°44' W 118°16'0 0.0
2017-Feb-16 06:33N 33°44' W 118°16'0 0.0
2017-Feb-16 05:33N 33°44' W 118°16'0 0.0
2017-Feb-16 04:32N 33°44' W 118°16'2 1.6
2017-Feb-16 03:32N 33°43' W 118°14'2 1.8
2017-Feb-16 02:33N 33°45' W 118°13'0 0.0
2017-Feb-16 01:33N 33°45' W 118°13'1 0.7
2017-Feb-16 00:32N 33°46' W 118°13'3 3.2
2017-Feb-15 23:33N 33°44' W 118°10'4 4.0
2017-Feb-15 22:33N 33°43' W 118°15'1 1.2
2017-Feb-15 21:33N 33°44' W 118°15'0 0.2
2017-Feb-15 20:34N 33°44' W 118°16'0 0.0
2017-Feb-15 19:34N 33°44' W 118°16'0 0.0
2017-Feb-15 18:33N 33°44' W 118°16'0 0.1
2017-Feb-15 17:34N 33°44' W 118°16'2 1.7
2017-Feb-15 16:32N 33°44' W 118°14'2 2.1
2017-Feb-15 15:34N 33°46' W 118°13'2 2.1
2017-Feb-15 14:34N 33°44' W 118°13'0 0.0
2017-Feb-15 13:33N 33°44' W 118°13'0 0.0
2017-Feb-15 12:33N 33°44' W 118°13'0 0.0
2017-Feb-15 11:33N 33°44' W 118°14'0 0.1
2017-Feb-15 10:33N 33°44' W 118°13'0 0.1
2017-Feb-15 09:33N 33°44' W 118°14'0 0.1
2017-Feb-15 08:32N 33°44' W 118°13'1 1.1
2017-Feb-15 07:24N 33°45' W 118°12'3 3.4
2017-Feb-15 06:32N 33°44' W 118°16'0 0.0
2017-Feb-15 05:32N 33°44' W 118°16'3 2.1
2017-Feb-15 04:18N 33°45' W 118°13'0 0.2
2017-Feb-15 03:33N 33°45' W 118°13'0 0.0
2017-Feb-15 02:33N 33°45' W 118°13'3 3.3
2017-Feb-15 01:34N 33°44' W 118°17'2 1.8
2017-Feb-15 00:34N 33°46' W 118°16'0 0.0
2017-Feb-14 23:32N 33°46' W 118°16'1 1.0
2017-Feb-14 22:33N 33°45' W 118°16'3 2.5
2017-Feb-14 21:33N 33°43' W 118°15'1 0.7
2017-Feb-14 20:32N 33°43' W 118°15'1 1.0
2017-Feb-14 19:33N 33°44' W 118°16'3 3.3
2017-Feb-14 18:34N 33°46' W 118°13'0 0.4
2017-Feb-14 17:33N 33°46' W 118°13'6 5.8
2017-Feb-14 16:34N 33°40' W 118°11'5 5.0
2017-Feb-14 15:33N 33°44' W 118°16'2 2.2
2017-Feb-14 14:33N 33°46' W 118°16'1 0.7
2017-Feb-14 13:34N 33°46' W 118°16'0 0.0
2017-Feb-14 12:33N 33°46' W 118°16'0 0.0
2017-Feb-14 11:33N 33°46' W 118°16'0 0.0
2017-Feb-14 10:33N 33°46' W 118°16'2 2.2
2017-Feb-14 09:33N 33°43' W 118°16'1 0.6
2017-Feb-14 08:27N 33°44' W 118°17'2 2.6
2017-Feb-14 07:34N 33°46' W 118°16'2 2.1
2017-Feb-14 06:33N 33°44' W 118°16'0 0.0
2017-Feb-14 05:33N 33°44' W 118°16'2 1.8
2017-Feb-14 04:33N 33°46' W 118°16'3 2.8
2017-Feb-14 03:32N 33°45' W 118°12'1 0.5
2017-Feb-14 01:33N 33°46' W 118°13'0 0.3
2017-Feb-14 00:32N 33°45' W 118°13'1 1.0
2017-Feb-13 23:34N 33°45' W 118°12'1 1.5
2017-Feb-13 22:33N 33°44' W 118°10'3 3.4
2017-Feb-13 21:33N 33°46' W 118°13'1 0.8
2017-Feb-13 20:34N 33°46' W 118°13'3 3.1
2017-Feb-13 19:33N 33°43' W 118°15'1 1.2
2017-Feb-13 18:33N 33°44' W 118°16'0 0.0
2017-Feb-13 17:34N 33°44' W 118°16'2 2.3
2017-Feb-13 16:34N 33°43' W 118°13'6 6.3
2017-Feb-13 15:33N 33°44' W 118°05'2 2.2
2017-Feb-13 14:33N 33°44' W 118°08'6 6.3
2017-Feb-13 13:34N 33°44' W 118°16'0 0.1
2017-Feb-13 12:33N 33°44' W 118°16'2 1.8
2017-Feb-13 11:33N 33°46' W 118°16'1 0.9
2017-Feb-13 10:33N 33°45' W 118°16'1 1.1
2017-Feb-13 09:28N 33°46' W 118°15'2 0.8
2017-Feb-13 07:12N 33°44' W 118°16'0 0.0
2017-Feb-13 06:28N 33°44' W 118°16'0 0.0
2017-Feb-13 05:33N 33°44' W 118°16'0 0.0
2017-Feb-13 04:33N 33°44' W 118°16'0 0.0
2017-Feb-13 03:33N 33°44' W 118°16'0 0.0
2017-Feb-13 02:33N 33°44' W 118°16'0 0.1
2017-Feb-13 01:33N 33°44' W 118°16'0 0.0
2017-Feb-12 21:25N 33°44' W 118°16'0 0.0
2017-Feb-12 20:31N 33°44' W 118°16'2 2.0
2017-Feb-12 19:33N 33°46' W 118°16'2 1.9
2017-Feb-12 18:31N 33°44' W 118°16'0 0.0
2017-Feb-12 17:23N 33°44' W 118°16'2 0.1
2017-Feb-11 09:13N 33°44' W 118°13'0 0.1
2017-Feb-11 08:32N 33°44' W 118°13'0 0.0
2017-Feb-11 07:27N 33°44' W 118°13'2 2.5
2017-Feb-11 06:33N 33°44' W 118°16'0 0.0
2017-Feb-11 05:28N 33°44' W 118°16'1 0.4
2017-Feb-11 02:26N 33°45' W 118°16'1 0.1
2017-Feb-10 18:27N 33°44' W 118°16'2 1.6
2017-Feb-10 17:18N 33°46' W 118°15'1 1.3
2017-Feb-10 16:33N 33°46' W 118°14'3 3.2
2017-Feb-10 15:33N 33°43' W 118°15'3 3.1
2017-Feb-10 14:33N 33°46' W 118°15'0 0.0
2017-Feb-10 13:33N 33°46' W 118°15'0 0.0
2017-Feb-10 12:26N 33°46' W 118°15'3 0.6
2017-Feb-10 08:10N 33°45' W 118°12'3 1.6
2017-Feb-10 06:14N 33°43' W 118°15'2 1.9
2017-Feb-10 05:26N 33°43' W 118°14'2 1.9
2017-Feb-10 04:33N 33°43' W 118°16'1 0.9
2017-Feb-10 03:31N 33°44' W 118°15'0 0.2
2017-Feb-10 02:33N 33°44' W 118°15'0 0.1
2017-Feb-10 01:33N 33°44' W 118°15'1 0.9
2017-Feb-10 00:30N 33°44' W 118°16'2 2.2
2017-Feb-09 23:33N 33°43' W 118°14'3 3.1
2017-Feb-09 22:32N 33°46' W 118°16'3 2.7
2017-Feb-09 21:33N 33°43' W 118°16'2 2.4
2017-Feb-09 20:33N 33°46' W 118°15'2 1.8
2017-Feb-09 19:32N 33°44' W 118°15'1 1.1
2017-Feb-09 18:23N 33°43' W 118°15'1 1.2
2017-Feb-09 17:15N 33°44' W 118°16'0 0.0
2017-Feb-09 16:16N 33°44' W 118°16'0 0.1
2017-Feb-09 14:30N 33°44' W 118°16'0 0.0
2017-Feb-09 13:32N 33°44' W 118°16'0 0.0
2017-Feb-09 12:34N 33°44' W 118°16'1 0.7
2017-Feb-09 11:32N 33°44' W 118°15'0 0.1
2017-Feb-09 10:27N 33°44' W 118°15'2 2.2
2017-Feb-09 09:25N 33°45' W 118°13'  
Track history (hours):
 
Tides and Currents Weather Stations Pressure Air Temp Water Temp Dewpoint Dewpoint Depression Visibility Wind Speed Wind Dir Waves Ship Positions

Tim Quigg

Owner: Harley Marine Services, Inc, Seattle, WA. More information available from US FCC via Universal Licensing System and Coast Guard Vessel Documentation Center.

Last reported at 2017-Feb-17 09:17 UTC. Time now 2017-Feb-19 18:42 UTC.
Position N 33°45' W 118°13'.

Type: Tug. MMSI: 366926740.

Date/timePositionNaut miles runAvg speedWind from/ knotsBaromVisibWave heightAir tempDewpointWater temp
2017-Feb-17 09:17N 33°45' W 118°13'2 0.7
2017-Feb-17 06:03N 33°44' W 118°16'0 0.0
2017-Feb-17 05:33N 33°44' W 118°16'0 0.0
2017-Feb-17 04:33N 33°44' W 118°16'2 2.1
2017-Feb-17 03:33N 33°45' W 118°14'0 0.1
2017-Feb-17 02:34N 33°45' W 118°14'1 1.2
2017-Feb-17 01:33N 33°46' W 118°13'2 2.2
2017-Feb-17 00:33N 33°44' W 118°12'3 2.8
2017-Feb-16 23:33N 33°43' W 118°15'1 1.1
2017-Feb-16 22:33N 33°44' W 118°16'0 0.0
2017-Feb-16 21:33N 33°44' W 118°16'1 1.3
2017-Feb-16 20:33N 33°43' W 118°15'4 3.6
2017-Feb-16 19:33N 33°44' W 118°11'4 4.2
2017-Feb-16 18:33N 33°44' W 118°16'3 2.8
2017-Feb-16 17:33N 33°44' W 118°12'0 0.0
2017-Feb-16 16:33N 33°44' W 118°12'0 0.0
2017-Feb-16 15:33N 33°44' W 118°12'4 3.7
2017-Feb-16 14:33N 33°45' W 118°17'1 0.8
2017-Feb-16 13:32N 33°44' W 118°16'2 2.1
2017-Feb-16 12:33N 33°43' W 118°14'1 1.0
2017-Feb-16 11:33N 33°44' W 118°13'4 3.9
2017-Feb-16 10:33N 33°44' W 118°09'5 4.9
2017-Feb-16 09:33N 33°43' W 118°14'1 1.4
2017-Feb-16 08:33N 33°44' W 118°16'0 0.0
2017-Feb-16 07:33N 33°44' W 118°16'0 0.0
2017-Feb-16 06:33N 33°44' W 118°16'0 0.0
2017-Feb-16 05:33N 33°44' W 118°16'0 0.0
2017-Feb-16 04:32N 33°44' W 118°16'2 1.6
2017-Feb-16 03:32N 33°43' W 118°14'2 1.8
2017-Feb-16 02:33N 33°45' W 118°13'0 0.0
2017-Feb-16 01:33N 33°45' W 118°13'1 0.7
2017-Feb-16 00:32N 33°46' W 118°13'3 3.2
2017-Feb-15 23:33N 33°44' W 118°10'4 4.0
2017-Feb-15 22:33N 33°43' W 118°15'1 1.2
2017-Feb-15 21:33N 33°44' W 118°15'0 0.2
2017-Feb-15 20:34N 33°44' W 118°16'0 0.0
2017-Feb-15 19:34N 33°44' W 118°16'0 0.0
2017-Feb-15 18:33N 33°44' W 118°16'0 0.1
2017-Feb-15 17:34N 33°44' W 118°16'2 1.7
2017-Feb-15 16:32N 33°44' W 118°14'2 2.1
2017-Feb-15 15:34N 33°46' W 118°13'2 2.1
2017-Feb-15 14:34N 33°44' W 118°13'0 0.0
2017-Feb-15 13:33N 33°44' W 118°13'0 0.0
2017-Feb-15 12:33N 33°44' W 118°13'0 0.0
2017-Feb-15 11:33N 33°44' W 118°14'0 0.1
2017-Feb-15 10:33N 33°44' W 118°13'0 0.1
2017-Feb-15 09:33N 33°44' W 118°14'0 0.1
2017-Feb-15 08:32N 33°44' W 118°13'1 1.1
2017-Feb-15 07:24N 33°45' W 118°12'3 3.4
2017-Feb-15 06:32N 33°44' W 118°16'0 0.0
2017-Feb-15 05:32N 33°44' W 118°16'3 2.1
2017-Feb-15 04:18N 33°45' W 118°13'0 0.2
2017-Feb-15 03:33N 33°45' W 118°13'0 0.0
2017-Feb-15 02:33N 33°45' W 118°13'3 3.3
2017-Feb-15 01:34N 33°44' W 118°17'2 1.8
2017-Feb-15 00:34N 33°46' W 118°16'0 0.0
2017-Feb-14 23:32N 33°46' W 118°16'1 1.0
2017-Feb-14 22:33N 33°45' W 118°16'3 2.5
2017-Feb-14 21:33N 33°43' W 118°15'1 0.7
2017-Feb-14 20:32N 33°43' W 118°15'1 1.0
2017-Feb-14 19:33N 33°44' W 118°16'3 3.3
2017-Feb-14 18:34N 33°46' W 118°13'0 0.4
2017-Feb-14 17:33N 33°46' W 118°13'6 5.8
2017-Feb-14 16:34N 33°40' W 118°11'5 5.0
2017-Feb-14 15:33N 33°44' W 118°16'2 2.2
2017-Feb-14 14:33N 33°46' W 118°16'1 0.7
2017-Feb-14 13:34N 33°46' W 118°16'0 0.0
2017-Feb-14 12:33N 33°46' W 118°16'0 0.0
2017-Feb-14 11:33N 33°46' W 118°16'0 0.0
2017-Feb-14 10:33N 33°46' W 118°16'2 2.2
2017-Feb-14 09:33N 33°43' W 118°16'1 0.6
2017-Feb-14 08:27N 33°44' W 118°17'2 2.6
2017-Feb-14 07:34N 33°46' W 118°16'2 2.1
2017-Feb-14 06:33N 33°44' W 118°16'0 0.0
2017-Feb-14 05:33N 33°44' W 118°16'2 1.8
2017-Feb-14 04:33N 33°46' W 118°16'3 2.8
2017-Feb-14 03:32N 33°45' W 118°12'1 0.5
2017-Feb-14 01:33N 33°46' W 118°13'0 0.3
2017-Feb-14 00:32N 33°45' W 118°13'1 1.0
2017-Feb-13 23:34N 33°45' W 118°12'1 1.5
2017-Feb-13 22:33N 33°44' W 118°10'3 3.4
2017-Feb-13 21:33N 33°46' W 118°13'1 0.8
2017-Feb-13 20:34N 33°46' W 118°13'3 3.1
2017-Feb-13 19:33N 33°43' W 118°15'1 1.2
2017-Feb-13 18:33N 33°44' W 118°16'0 0.0
2017-Feb-13 17:34N 33°44' W 118°16'2 2.3
2017-Feb-13 16:34N 33°43' W 118°13'6 6.3
2017-Feb-13 15:33N 33°44' W 118°05'2 2.2
2017-Feb-13 14:33N 33°44' W 118°08'6 6.3
2017-Feb-13 13:34N 33°44' W 118°16'0 0.1
2017-Feb-13 12:33N 33°44' W 118°16'2 1.8
2017-Feb-13 11:33N 33°46' W 118°16'1 0.9
2017-Feb-13 10:33N 33°45' W 118°16'1 1.1
2017-Feb-13 09:28N 33°46' W 118°15'2 0.8
2017-Feb-13 07:12N 33°44' W 118°16'0 0.0
2017-Feb-13 06:28N 33°44' W 118°16'0 0.0
2017-Feb-13 05:33N 33°44' W 118°16'0 0.0
2017-Feb-13 04:33N 33°44' W 118°16'0 0.0
2017-Feb-13 03:33N 33°44' W 118°16'0 0.0
2017-Feb-13 02:33N 33°44' W 118°16'0 0.1
2017-Feb-13 01:33N 33°44' W 118°16'0 0.0
2017-Feb-12 21:25N 33°44' W 118°16'0 0.0
2017-Feb-12 20:31N 33°44' W 118°16'2 2.0
2017-Feb-12 19:33N 33°46' W 118°16'2 1.9
2017-Feb-12 18:31N 33°44' W 118°16'0 0.0
2017-Feb-12 17:23N 33°44' W 118°16'2 0.1
2017-Feb-11 09:13N 33°44' W 118°13'0 0.1
2017-Feb-11 08:32N 33°44' W 118°13'0 0.0
2017-Feb-11 07:27N 33°44' W 118°13'2 2.5
2017-Feb-11 06:33N 33°44' W 118°16'0 0.0
2017-Feb-11 05:28N 33°44' W 118°16'1 0.4
2017-Feb-11 02:26N 33°45' W 118°16'1 0.1
2017-Feb-10 18:27N 33°44' W 118°16'2 1.6
2017-Feb-10 17:18N 33°46' W 118°15'1 1.3
2017-Feb-10 16:33N 33°46' W 118°14'3 3.2
2017-Feb-10 15:33N 33°43' W 118°15'3 3.1
2017-Feb-10 14:33N 33°46' W 118°15'0 0.0
2017-Feb-10 13:33N 33°46' W 118°15'0 0.0
2017-Feb-10 12:26N 33°46' W 118°15'3 0.6
2017-Feb-10 08:10N 33°45' W 118°12'3 1.6
2017-Feb-10 06:14N 33°43' W 118°15'2 1.9
2017-Feb-10 05:26N 33°43' W 118°14'2 1.9
2017-Feb-10 04:33N 33°43' W 118°16'1 0.9
2017-Feb-10 03:31N 33°44' W 118°15'0 0.2
2017-Feb-10 02:33N 33°44' W 118°15'0 0.1
2017-Feb-10 01:33N 33°44' W 118°15'1 0.9
2017-Feb-10 00:30N 33°44' W 118°16'2 2.2
2017-Feb-09 23:33N 33°43' W 118°14'3 3.1
2017-Feb-09 22:32N 33°46' W 118°16'3 2.7
2017-Feb-09 21:33N 33°43' W 118°16'2 2.4
2017-Feb-09 20:33N 33°46' W 118°15'2 1.8
2017-Feb-09 19:32N 33°44' W 118°15'1 1.1
2017-Feb-09 18:23N 33°43' W 118°15'1 1.2
2017-Feb-09 17:15N 33°44' W 118°16'0 0.0
2017-Feb-09 16:16N 33°44' W 118°16'0 0.1
2017-Feb-09 14:30N 33°44' W 118°16'0 0.0
2017-Feb-09 13:32N 33°44' W 118°16'0 0.0
2017-Feb-09 12:34N 33°44' W 118°16'1 0.7
2017-Feb-09 11:32N 33°44' W 118°15'0 0.1
2017-Feb-09 10:27N 33°44' W 118°15'2 2.2
2017-Feb-09 09:25N 33°45' W 118°13'  

Dump ship's entire track history